createdAt,value
2022-10-30T00:00:07.889Z,7.90
2022-10-30T00:02:39.231Z,7.60
2022-10-30T00:05:06.742Z,8.30
2022-10-30T00:07:34.352Z,7.22
2022-10-30T00:10:01.625Z,7.55
2022-10-30T00:12:28.949Z,8.40
2022-10-30T00:14:56.407Z,9.35
2022-10-30T00:17:23.618Z,7.85
2022-10-30T00:19:51.170Z,8.85
2022-10-30T00:22:18.468Z,7.80
2022-10-30T00:24:45.780Z,7.68
2022-10-30T00:27:13.196Z,7.63
2022-10-30T00:29:40.547Z,7.18
2022-10-30T00:32:07.788Z,8.23
2022-10-30T00:34:35.175Z,8.27
2022-10-30T00:37:02.547Z,8.38
2022-10-30T00:39:29.839Z,8.07
2022-10-30T00:41:57.112Z,7.65
2022-10-30T00:44:33.429Z,7.97
2022-10-30T00:47:04.435Z,7.47
2022-10-30T00:49:37.473Z,8.05
2022-10-30T00:52:06.456Z,7.75
2022-10-30T00:54:34.196Z,8.20
2022-10-30T00:57:02.617Z,8.25
2022-10-30T00:59:33.229Z,7.28
2022-10-30T01:02:01.980Z,8.27
2022-10-30T01:04:30.548Z,8.10
2022-10-30T01:06:58.434Z,7.70
2022-10-30T01:09:25.645Z,7.78
2022-10-30T01:11:53.043Z,7.57
2022-10-30T01:14:21.097Z,7.80
2022-10-30T01:16:48.877Z,8.23
2022-10-30T01:19:35.138Z,7.38
2022-10-30T01:22:11.224Z,7.68
2022-10-30T01:24:59.782Z,8.30
2022-10-30T01:27:39.151Z,7.70
2022-10-30T01:30:17.861Z,8.02
2022-10-30T01:33:00.994Z,8.50
2022-10-30T01:35:41.589Z,8.48
2022-10-30T01:38:22.502Z,8.05
2022-10-30T01:40:53.224Z,7.95
2022-10-30T01:43:20.995Z,7.90
2022-10-30T01:46:10.844Z,8.43
2022-10-30T01:48:43.985Z,8.52
2022-10-30T01:51:30.386Z,7.65
2022-10-30T01:54:07.009Z,8.25
2022-10-30T01:56:37.508Z,9.07
2022-10-30T01:59:22.100Z,9.00
2022-10-30T02:01:50.437Z,8.90
2022-10-30T02:04:18.118Z,8.48
2022-10-30T02:06:46.001Z,9.35
2022-10-30T02:09:15.551Z,8.02
2022-10-30T02:11:48.666Z,8.50
2022-10-30T02:14:17.974Z,8.77
2022-10-30T02:16:47.156Z,8.57
2022-10-30T02:19:14.461Z,8.27
2022-10-30T02:21:41.788Z,8.48
2022-10-30T02:24:09.187Z,8.65
2022-10-30T02:26:37.174Z,8.88
2022-10-30T02:29:04.397Z,8.95
2022-10-30T02:31:31.626Z,8.02
2022-10-30T02:33:58.927Z,9.95
2022-10-30T02:36:26.371Z,9.40
2022-10-30T02:38:55.941Z,9.10
2022-10-30T02:41:25.452Z,8.32
2022-10-30T02:43:53.729Z,8.82
2022-10-30T02:46:21.178Z,8.57
2022-10-30T02:48:49.389Z,8.23
2022-10-30T02:51:16.818Z,8.63
2022-10-30T02:53:44.267Z,8.73
2022-10-30T02:56:12.926Z,8.73
2022-10-30T02:58:42.111Z,8.80
2022-10-30T03:01:14.623Z,9.02
2022-10-30T03:03:42.849Z,9.63
2022-10-30T03:06:15.492Z,8.27
2022-10-30T03:08:43.679Z,8.48
2022-10-30T03:11:15.812Z,8.43
2022-10-30T03:13:44.018Z,8.45
2022-10-30T03:16:15.884Z,9.15
2022-10-30T03:18:43.372Z,8.52
2022-10-30T03:21:12.559Z,8.77
2022-10-30T03:23:39.943Z,9.30
2022-10-30T03:26:07.234Z,8.35
2022-10-30T03:28:43.454Z,8.13
2022-10-30T03:31:12.104Z,9.07
2022-10-30T03:33:40.977Z,9.23
2022-10-30T03:36:09.358Z,9.00
2022-10-30T03:38:36.738Z,8.73
2022-10-30T03:41:04.471Z,8.15
2022-10-30T03:43:32.142Z,8.73
2022-10-30T03:45:59.693Z,9.07
2022-10-30T03:48:27.759Z,9.30
2022-10-30T03:50:57.772Z,8.60
2022-10-30T03:53:26.283Z,9.10
2022-10-30T03:55:54.189Z,8.30
2022-10-30T03:58:21.599Z,9.45
2022-10-30T04:00:48.977Z,8.38
2022-10-30T04:03:16.361Z,9.27
2022-10-30T04:05:44.974Z,8.73
2022-10-30T04:08:13.706Z,8.65
2022-10-30T04:10:45.027Z,8.35
2022-10-30T04:13:13.290Z,7.95
2022-10-30T04:15:55.745Z,8.45
2022-10-30T04:18:25.981Z,8.70
2022-10-30T04:20:53.918Z,8.48
2022-10-30T04:23:22.014Z,8.02
2022-10-30T04:25:49.751Z,8.45
2022-10-30T04:28:17.684Z,7.75
2022-10-30T04:30:46.932Z,7.97
2022-10-30T04:33:16.417Z,7.88
2022-10-30T04:35:43.765Z,8.38
2022-10-30T04:38:15.429Z,8.10
2022-10-30T04:40:44.737Z,7.20
2022-10-30T04:43:14.435Z,8.65
2022-10-30T04:45:42.985Z,8.20
2022-10-30T04:48:18.150Z,7.97
2022-10-30T04:50:47.392Z,7.60
2022-10-30T04:53:22.806Z,7.53
2022-10-30T04:55:56.081Z,7.93
2022-10-30T04:58:23.745Z,9.10
2022-10-30T05:01:03.452Z,7.78
2022-10-30T05:03:31.941Z,7.68
2022-10-30T05:06:04.144Z,8.07
2022-10-30T05:08:31.500Z,8.13
2022-10-30T05:11:04.394Z,8.10
2022-10-30T05:13:32.038Z,7.47
2022-10-30T05:15:59.229Z,7.72
2022-10-30T05:18:26.900Z,7.97
2022-10-30T05:20:54.187Z,7.72
2022-10-30T05:23:23.234Z,7.35
2022-10-30T05:25:51.025Z,7.80
2022-10-30T05:28:18.312Z,7.35
2022-10-30T05:30:53.589Z,7.78
2022-10-30T05:33:40.917Z,7.68
2022-10-30T05:36:09.155Z,7.35
2022-10-30T05:38:36.409Z,7.22
2022-10-30T05:41:05.952Z,7.65
2022-10-30T05:43:33.251Z,7.80
2022-10-30T05:46:00.718Z,7.38
2022-10-30T05:48:28.213Z,7.25
2022-10-30T05:50:58.749Z,7.85
2022-10-30T05:53:29.137Z,7.53
2022-10-30T05:55:58.432Z,7.95
2022-10-30T05:58:29.313Z,7.38
2022-10-30T06:00:59.147Z,8.30
2022-10-30T06:03:39.562Z,7.85
2022-10-30T06:06:07.265Z,7.35
2022-10-30T06:08:34.543Z,8.07
2022-10-30T06:11:12.092Z,8.20
2022-10-30T06:13:41.723Z,7.63
2022-10-30T06:16:13.104Z,7.25
2022-10-30T06:19:18.444Z,6.65
2022-10-30T06:21:48.137Z,8.25
2022-10-30T06:24:24.555Z,7.10
2022-10-30T06:27:15.350Z,7.85
2022-10-30T06:29:42.739Z,8.55
2022-10-30T06:32:10.035Z,7.53
2022-10-30T06:34:37.814Z,8.20
2022-10-30T06:37:06.144Z,7.45
2022-10-30T06:39:33.575Z,8.40
2022-10-30T06:42:33.001Z,8.45
2022-10-30T06:45:12.378Z,7.80
2022-10-30T06:47:39.877Z,7.63
2022-10-30T06:50:10.124Z,7.90
2022-10-30T06:52:37.866Z,8.15
2022-10-30T06:55:05.714Z,7.47
2022-10-30T06:57:56.899Z,7.47
2022-10-30T07:00:47.571Z,7.78
2022-10-30T07:03:33.782Z,7.57
2022-10-30T07:06:02.441Z,7.47
2022-10-30T07:08:29.837Z,7.95
2022-10-30T07:10:58.703Z,7.68
2022-10-30T07:16:28.654Z,7.97
2022-10-30T07:18:59.309Z,8.23
2022-10-30T07:21:29.712Z,7.88
2022-10-30T07:23:57.171Z,8.25
2022-10-30T07:26:29.306Z,7.47
2022-10-30T07:29:00.940Z,7.32
2022-10-30T07:31:57.534Z,7.50
2022-10-30T07:34:49.489Z,7.32
2022-10-30T07:37:35.979Z,7.00
2022-10-30T07:40:12.777Z,8.02
2022-10-30T07:43:00.700Z,7.38
2022-10-30T07:45:47.196Z,7.05
2022-10-30T07:48:39.933Z,7.22
2022-10-30T07:51:09.913Z,6.93
2022-10-30T07:53:38.088Z,7.20
2022-10-30T07:56:06.055Z,7.72
2022-10-30T07:59:02.842Z,7.22
2022-10-30T08:01:45.463Z,7.40
2022-10-30T08:04:33.310Z,7.68
2022-10-30T08:07:10.477Z,7.97
2022-10-30T08:09:37.952Z,7.28
2022-10-30T08:12:05.346Z,8.13
2022-10-30T08:14:32.729Z,7.07
2022-10-30T08:17:00.254Z,7.53
2022-10-30T08:19:28.341Z,8.07
2022-10-30T08:21:59.225Z,7.78
2022-10-30T08:24:27.801Z,8.52
2022-10-30T08:26:58.993Z,8.45
2022-10-30T08:29:27.540Z,7.40
2022-10-30T08:31:55.570Z,8.15
2022-10-30T08:34:22.860Z,7.10
2022-10-30T08:36:55.197Z,7.88
2022-10-30T08:39:23.375Z,7.22
2022-10-30T08:42:22.604Z,7.53
2022-10-30T08:44:50.934Z,7.25
2022-10-30T08:47:23.895Z,7.57
2022-10-30T08:49:51.402Z,7.50
2022-10-30T08:52:22.157Z,6.45
2022-10-30T08:54:55.087Z,7.00
2022-10-30T08:57:24.544Z,6.90
2022-10-30T08:59:52.994Z,6.78
2022-10-30T09:02:40.542Z,6.80
2022-10-30T09:05:37.912Z,6.75
2022-10-30T09:08:17.456Z,7.43
2022-10-30T09:11:07.954Z,6.80
2022-10-30T09:13:35.724Z,6.07
2022-10-30T09:16:05.019Z,7.00
2022-10-30T09:18:35.369Z,7.30
2022-10-30T09:21:04.903Z,6.50
2022-10-30T09:23:38.001Z,7.00
2022-10-30T09:26:28.208Z,6.82
2022-10-30T09:29:12.305Z,6.60
2022-10-30T09:31:58.820Z,6.45
2022-10-30T09:37:05.644Z,6.57
2022-10-30T09:39:36.874Z,7.05
2022-10-30T09:42:11.913Z,6.75
2022-10-30T09:45:23.123Z,6.90
2022-10-30T09:48:01.718Z,7.10
2022-10-30T09:50:39.888Z,7.22
2022-10-30T09:53:31.764Z,7.55
2022-10-30T09:56:06.999Z,7.55
2022-10-30T09:58:35.191Z,7.55
2022-10-30T10:01:27.493Z,7.15
2022-10-30T10:04:08.813Z,7.03
2022-10-30T10:06:51.610Z,8.27
2022-10-30T10:09:48.905Z,6.88
2022-10-30T10:12:50.955Z,6.50
2022-10-30T10:15:36.599Z,6.55
2022-10-30T10:18:06.189Z,6.75
2022-10-30T10:20:38.314Z,6.93
2022-10-30T10:23:11.369Z,7.95
2022-10-30T10:25:40.659Z,6.18
2022-10-30T10:28:22.322Z,6.38
2022-10-30T10:30:59.233Z,6.00
2022-10-30T10:33:29.641Z,5.60
2022-10-30T10:35:59.670Z,6.30
2022-10-30T10:38:27.129Z,5.72
2022-10-30T10:41:13.221Z,6.35
2022-10-30T10:43:58.848Z,6.35
2022-10-30T10:46:32.473Z,6.05
2022-10-30T10:49:17.252Z,5.70
2022-10-30T10:51:56.264Z,5.85
2022-10-30T10:54:32.434Z,5.88
2022-10-30T10:56:59.947Z,5.57
2022-10-30T10:59:36.147Z,5.55
2022-10-30T11:02:20.364Z,5.30
2022-10-30T11:04:50.797Z,6.07
2022-10-30T11:07:25.612Z,5.75
2022-10-30T11:09:56.410Z,6.07
2022-10-30T11:12:28.548Z,5.78
2022-10-30T11:14:59.206Z,6.35
2022-10-30T11:17:26.463Z,6.45
2022-10-30T11:19:57.987Z,5.57
2022-10-30T11:22:33.729Z,5.32
2022-10-30T11:25:19.186Z,5.78
2022-10-30T11:27:54.191Z,5.80
2022-10-30T11:30:23.531Z,5.93
2022-10-30T11:32:51.077Z,5.82
2022-10-30T11:35:20.610Z,6.43
2022-10-30T11:37:52.376Z,6.20
2022-10-30T11:40:23.135Z,5.78
2022-10-30T11:43:00.170Z,6.30
2022-10-30T11:45:30.956Z,5.55
2022-10-30T11:48:02.620Z,5.93
2022-10-30T11:50:32.665Z,6.07
2022-10-30T11:53:09.751Z,5.82
2022-10-30T11:55:41.187Z,5.45
2022-10-30T11:58:11.529Z,5.65
2022-10-30T12:00:41.038Z,5.60
2022-10-30T12:03:29.113Z,6.30
2022-10-30T12:06:16.435Z,5.57
2022-10-30T12:09:10.991Z,6.15
2022-10-30T12:11:39.560Z,5.55
2022-10-30T12:14:06.827Z,5.38
2022-10-30T12:16:34.198Z,5.20
2022-10-30T12:19:09.552Z,4.90
2022-10-30T12:21:39.757Z,5.68
2022-10-30T12:24:18.171Z,5.50
2022-10-30T12:26:52.337Z,5.05
2022-10-30T12:29:36.450Z,4.70
2022-10-30T12:32:18.890Z,5.18
2022-10-30T12:34:59.437Z,5.13
2022-10-30T12:37:42.806Z,5.38
2022-10-30T12:40:21.230Z,4.65
2022-10-30T12:43:04.436Z,4.80
2022-10-30T12:45:35.002Z,4.47
2022-10-30T12:48:09.200Z,4.53
2022-10-30T12:51:04.362Z,4.60
2022-10-30T12:53:51.448Z,4.57
2022-10-30T12:56:33.900Z,4.90
2022-10-30T12:59:21.488Z,5.28
2022-10-30T13:02:01.799Z,4.32
2022-10-30T13:04:36.056Z,4.30
2022-10-30T13:07:17.145Z,3.85
2022-10-30T13:10:03.512Z,3.70
2022-10-30T13:12:38.084Z,3.70
2022-10-30T13:15:11.496Z,4.38
2022-10-30T13:17:38.475Z,3.83
2022-10-30T13:20:14.281Z,3.55
2022-10-30T13:22:52.345Z,3.25
2022-10-30T13:25:40.181Z,3.70
2022-10-30T13:28:32.562Z,2.60
2022-10-30T13:31:08.270Z,2.30
2022-10-30T13:33:43.514Z,2.85
2022-10-30T13:36:24.315Z,2.88
2022-10-30T13:38:57.890Z,2.13
2022-10-30T13:41:45.317Z,2.20
2022-10-30T13:44:24.740Z,2.03
2022-10-30T13:47:04.386Z,2.53
2022-10-30T13:49:31.638Z,2.03
2022-10-30T13:52:06.391Z,1.85
2022-10-30T13:54:39.223Z,1.90
2022-10-30T13:57:15.257Z,1.90
2022-10-30T13:59:42.744Z,2.20
2022-10-30T14:02:23.723Z,1.58
2022-10-30T14:04:54.581Z,2.42
2022-10-30T14:07:40.714Z,1.95
2022-10-30T14:10:08.708Z,2.28
2022-10-30T14:12:54.908Z,1.98
2022-10-30T14:15:25.297Z,1.58
2022-10-30T14:18:11.363Z,1.70
2022-10-30T14:20:40.046Z,3.40
2022-10-30T14:23:13.398Z,2.58
2022-10-30T14:25:41.038Z,2.22
2022-10-30T14:28:21.396Z,1.70
2022-10-30T14:30:48.780Z,1.70
2022-10-30T14:33:35.239Z,1.95
2022-10-30T14:36:17.705Z,2.25
2022-10-30T14:38:54.167Z,1.50
2022-10-30T14:41:28.863Z,1.25
2022-10-30T14:46:27.198Z,1.52
2022-10-30T14:49:02.275Z,1.48
2022-10-30T14:51:35.802Z,1.10
2022-10-30T14:54:11.929Z,1.35
2022-10-30T14:56:50.397Z,1.48
2022-10-30T14:59:17.887Z,1.63
2022-10-30T15:01:54.154Z,1.27
2022-10-30T15:04:41.877Z,1.20
2022-10-30T15:07:21.069Z,1.05
2022-10-30T15:09:57.265Z,1.38
2022-10-30T15:12:36.150Z,1.45
2022-10-30T15:15:05.746Z,1.42
2022-10-30T15:17:42.627Z,2.00
2022-10-30T15:20:20.342Z,1.38
2022-10-30T15:22:49.774Z,1.50
2022-10-30T15:25:21.242Z,1.20
2022-10-30T15:27:51.446Z,1.58
2022-10-30T15:30:20.699Z,2.42
2022-10-30T15:32:48.251Z,2.25
2022-10-30T15:35:19.596Z,2.17
2022-10-30T15:37:59.347Z,2.50
2022-10-30T15:40:26.779Z,2.10
2022-10-30T15:42:54.634Z,2.38
2022-10-30T15:45:26.533Z,1.70
2022-10-30T15:48:16.870Z,1.75
2022-10-30T15:50:46.463Z,2.17
2022-10-30T15:53:21.163Z,2.00
2022-10-30T15:55:49.216Z,1.90
2022-10-30T15:58:18.291Z,2.17
2022-10-30T16:00:55.508Z,2.17
2022-10-30T16:03:23.208Z,2.10
2022-10-30T16:05:50.460Z,2.15
2022-10-30T16:08:25.202Z,2.10
2022-10-30T16:10:54.046Z,2.70
2022-10-30T16:13:23.801Z,2.40
2022-10-30T16:15:51.262Z,3.63
2022-10-30T16:18:22.975Z,3.55
2022-10-30T16:20:54.651Z,3.00
2022-10-30T16:23:22.557Z,3.08
2022-10-30T16:25:54.371Z,4.97
2022-10-30T16:28:39.937Z,5.45
2022-10-30T16:31:08.670Z,4.93
2022-10-30T16:33:37.184Z,2.78
2022-10-30T16:36:06.123Z,2.70
2022-10-30T16:38:38.716Z,3.20
2022-10-30T16:41:06.950Z,2.40
2022-10-30T16:43:34.936Z,2.00
2022-10-30T16:46:17.382Z,1.75
2022-10-30T16:48:46.695Z,2.10
2022-10-30T16:51:18.002Z,2.90
2022-10-30T16:53:48.884Z,2.50
2022-10-30T16:56:26.450Z,3.50
2022-10-30T16:58:54.943Z,5.13
2022-10-30T17:01:31.157Z,3.13
2022-10-30T17:03:59.244Z,3.20
2022-10-30T17:06:26.428Z,2.72
2022-10-30T17:08:54.848Z,2.25
2022-10-30T17:11:34.908Z,2.35
2022-10-30T17:14:05.039Z,1.60
2022-10-30T17:16:33.835Z,2.03
2022-10-30T17:19:02.556Z,1.80
2022-10-30T17:21:42.765Z,2.30
2022-10-30T17:24:20.915Z,2.45
2022-10-30T17:26:58.496Z,2.40
2022-10-30T17:29:38.458Z,1.95
2022-10-30T17:32:07.376Z,1.35
2022-10-30T17:34:38.078Z,1.77
2022-10-30T17:37:05.332Z,2.45
2022-10-30T17:39:32.643Z,1.73
2022-10-30T17:42:00.102Z,1.80
2022-10-30T17:44:31.706Z,1.67
2022-10-30T17:46:59.042Z,2.03
2022-10-30T17:49:28.803Z,3.38
2022-10-30T17:51:56.351Z,2.40
2022-10-30T17:54:23.700Z,2.35
2022-10-30T17:56:51.373Z,1.40
2022-10-30T17:59:18.782Z,1.60
2022-10-30T18:02:13.641Z,1.30
2022-10-30T18:04:44.561Z,1.58
2022-10-30T18:07:12.440Z,1.23
2022-10-30T18:09:56.727Z,1.80
2022-10-30T18:12:24.391Z,2.40
2022-10-30T18:14:51.629Z,1.75
2022-10-30T18:17:19.027Z,1.40
2022-10-30T18:19:46.264Z,1.27
2022-10-30T18:22:13.727Z,2.10
2022-10-30T18:24:41.501Z,1.50
2022-10-30T18:27:08.905Z,1.60
2022-10-30T18:29:36.085Z,1.50
2022-10-30T18:32:08.425Z,1.60
2022-10-30T18:34:36.801Z,1.45
2022-10-30T18:37:04.222Z,1.27
2022-10-30T18:39:31.636Z,1.70
2022-10-30T18:41:59.724Z,1.40
2022-10-30T18:44:27.013Z,1.85
2022-10-30T18:46:57.512Z,1.75
2022-10-30T18:49:31.999Z,1.60
2022-10-30T18:52:05.375Z,1.65
2022-10-30T18:54:32.755Z,1.27
2022-10-30T18:56:59.988Z,1.60
2022-10-30T18:59:27.296Z,1.67
2022-10-30T19:01:54.708Z,1.73
2022-10-30T19:04:22.732Z,1.48
2022-10-30T19:06:51.071Z,2.22
2022-10-30T19:09:18.357Z,2.13
2022-10-30T19:11:45.709Z,1.80
2022-10-30T19:14:14.366Z,2.10
2022-10-30T19:16:41.731Z,1.83
2022-10-30T19:19:09.000Z,1.63
2022-10-30T19:21:36.791Z,1.67
2022-10-30T19:24:07.687Z,1.73
2022-10-30T19:26:35.131Z,1.38
2022-10-30T19:29:02.373Z,1.92
2022-10-30T19:31:29.901Z,1.88
2022-10-30T19:33:57.340Z,1.60
2022-10-30T19:36:26.990Z,1.30
2022-10-30T19:38:54.405Z,1.58
2022-10-30T19:41:21.916Z,2.03
2022-10-30T19:43:49.305Z,1.80
2022-10-30T19:46:16.712Z,1.60
2022-10-30T19:49:00.161Z,1.50
2022-10-30T19:51:28.523Z,1.55
2022-10-30T19:53:56.114Z,1.50
2022-10-30T19:56:23.516Z,1.63
2022-10-30T19:58:51.098Z,1.80
2022-10-30T20:01:18.751Z,1.85
2022-10-30T20:03:46.133Z,1.63
2022-10-30T20:06:13.711Z,1.60
2022-10-30T20:08:41.062Z,1.50
2022-10-30T20:11:08.401Z,1.70
2022-10-30T20:13:37.342Z,1.48
2022-10-30T20:16:05.810Z,1.65
2022-10-30T20:18:33.996Z,1.50
2022-10-30T20:21:02.562Z,1.48
2022-10-30T20:23:29.836Z,1.50
2022-10-30T20:26:01.285Z,1.60
2022-10-30T20:28:28.673Z,1.45
2022-10-30T20:30:56.225Z,1.80
2022-10-30T20:33:25.434Z,1.60
2022-10-30T20:35:54.654Z,1.52
2022-10-30T20:38:26.394Z,1.52
2022-10-30T20:40:54.216Z,1.30
2022-10-30T20:43:23.007Z,1.67
2022-10-30T20:45:50.321Z,1.67
2022-10-30T20:48:17.577Z,1.60
2022-10-30T20:50:50.315Z,1.73
2022-10-30T20:53:18.126Z,1.70
2022-10-30T20:55:46.403Z,1.65
2022-10-30T20:58:13.788Z,2.00
2022-10-30T21:00:41.132Z,1.63
2022-10-30T21:03:08.797Z,1.40
2022-10-30T21:05:45.395Z,1.80
2022-10-30T21:08:13.615Z,1.98
2022-10-30T21:10:41.203Z,1.80
2022-10-30T21:13:09.737Z,2.08
2022-10-30T21:15:44.866Z,1.88
2022-10-30T21:18:13.262Z,2.20
2022-10-30T21:20:43.757Z,1.73
2022-10-30T21:23:11.221Z,2.35
2022-10-30T21:25:38.495Z,2.05
2022-10-30T21:28:05.787Z,2.60
2022-10-30T21:30:33.140Z,2.20
2022-10-30T21:33:00.765Z,2.00
2022-10-30T21:35:28.343Z,2.25
2022-10-30T21:37:55.817Z,2.20
2022-10-30T21:40:23.108Z,2.72
2022-10-30T21:42:50.559Z,3.03
2022-10-30T21:45:17.944Z,3.08
2022-10-30T21:47:45.229Z,2.35
2022-10-30T21:50:13.065Z,2.15
2022-10-30T21:52:40.951Z,2.28
2022-10-30T21:55:08.506Z,2.67
2022-10-30T21:57:38.867Z,2.33
2022-10-30T22:00:07.527Z,2.17
2022-10-30T22:02:35.516Z,2.85
2022-10-30T22:05:02.840Z,2.78
2022-10-30T22:07:30.239Z,2.75
2022-10-30T22:09:57.597Z,2.88
2022-10-30T22:12:24.820Z,2.85
2022-10-30T22:14:52.313Z,2.42
2022-10-30T22:17:21.774Z,2.42
2022-10-30T22:19:49.052Z,2.22
2022-10-30T22:22:19.266Z,2.40
2022-10-30T22:24:46.602Z,2.70
2022-10-30T22:27:13.889Z,2.90
2022-10-30T22:29:44.009Z,2.50
2022-10-30T22:32:11.377Z,2.50
2022-10-30T22:34:38.552Z,2.85
2022-10-30T22:37:06.064Z,3.00
2022-10-30T22:39:33.415Z,2.85
2022-10-30T22:42:00.733Z,2.60
2022-10-30T22:44:30.768Z,3.00
2022-10-30T22:47:01.063Z,2.97
2022-10-30T22:49:28.405Z,2.92
2022-10-30T22:51:55.699Z,3.55
2022-10-30T22:54:23.148Z,3.30
2022-10-30T22:56:50.489Z,2.95
2022-10-30T22:59:17.955Z,2.50
2022-10-30T23:01:45.256Z,2.63
2022-10-30T23:04:15.422Z,2.90
2022-10-30T23:06:43.069Z,2.90
2022-10-30T23:09:15.410Z,2.95
2022-10-30T23:11:42.717Z,3.20
2022-10-30T23:14:10.041Z,3.15
2022-10-30T23:16:37.363Z,3.50
2022-10-30T23:19:04.607Z,3.78
2022-10-30T23:21:33.157Z,3.75
2022-10-30T23:24:02.361Z,3.33
2022-10-30T23:26:31.308Z,4.18
2022-10-30T23:28:59.151Z,3.90
2022-10-30T23:31:26.443Z,4.00
2022-10-30T23:33:55.007Z,4.80
2022-10-30T23:36:22.631Z,4.53
2022-10-30T23:38:53.513Z,4.55
2022-10-30T23:41:21.567Z,3.97
2022-10-30T23:43:48.911Z,4.55
2022-10-30T23:46:16.724Z,5.03
2022-10-30T23:48:43.950Z,4.65
2022-10-30T23:51:11.372Z,4.72
2022-10-30T23:53:38.757Z,4.57
2022-10-30T23:56:06.626Z,4.30
2022-10-30T23:58:34.044Z,5.10
